createdAt,value
2022-09-29T00:02:04.109Z,99575.00
2022-09-29T00:04:30.761Z,99570.00
2022-09-29T00:06:57.218Z,99573.00
2022-09-29T00:09:23.634Z,99572.00
2022-09-29T00:11:54.306Z,99579.00
2022-09-29T00:14:20.893Z,99570.00
2022-09-29T00:16:47.569Z,99575.00
2022-09-29T00:19:14.258Z,99571.00
2022-09-29T00:21:40.738Z,99583.00
2022-09-29T00:24:07.202Z,99577.00
2022-09-29T00:26:33.916Z,99576.00
2022-09-29T00:29:00.947Z,99583.00
2022-09-29T00:31:29.902Z,99584.00
2022-09-29T00:33:57.935Z,99579.00
2022-09-29T00:36:25.587Z,99581.00
2022-09-29T00:38:54.581Z,99575.00
2022-09-29T00:41:24.538Z,99581.00
2022-09-29T00:43:55.910Z,99578.00
2022-09-29T00:46:53.076Z,99575.00
2022-09-29T00:49:41.551Z,99584.00
2022-09-29T00:52:29.854Z,99582.00
2022-09-29T00:55:25.024Z,99580.00
2022-09-29T00:58:00.670Z,99584.00
2022-09-29T01:00:27.241Z,99580.00
2022-09-29T01:03:13.780Z,99577.00
2022-09-29T01:05:44.290Z,99576.00
2022-09-29T01:08:20.619Z,99583.00
2022-09-29T01:10:48.527Z,99577.00
2022-09-29T01:13:14.992Z,99581.00
2022-09-29T01:15:41.425Z,99585.00
2022-09-29T01:18:08.079Z,99586.00
2022-09-29T01:20:41.075Z,99589.00
2022-09-29T01:23:39.694Z,99586.00
2022-09-29T01:26:38.778Z,99592.00
2022-09-29T01:29:12.457Z,99600.00
2022-09-29T01:31:57.600Z,99599.00
2022-09-29T01:34:57.549Z,99606.00
2022-09-29T01:37:57.077Z,99609.00
2022-09-29T01:41:06.300Z,99615.00
2022-09-29T01:44:06.573Z,99615.00
2022-09-29T01:46:41.005Z,99614.00
2022-09-29T01:49:08.708Z,99616.00
2022-09-29T01:51:41.833Z,99616.00
2022-09-29T01:54:22.394Z,99625.00
2022-09-29T01:56:56.443Z,99612.00
2022-09-29T01:59:49.241Z,99619.00
2022-09-29T02:02:22.358Z,99624.00
2022-09-29T02:04:54.988Z,99621.00
2022-09-29T02:07:26.544Z,99632.00
2022-09-29T02:10:01.226Z,99623.00
2022-09-29T02:12:30.272Z,99620.00
2022-09-29T02:14:58.122Z,99622.00
2022-09-29T02:17:31.458Z,99621.00
2022-09-29T02:19:57.921Z,99624.00
2022-09-29T02:22:24.676Z,99624.00
2022-09-29T02:24:54.590Z,99626.00
2022-09-29T02:27:21.688Z,99630.00
2022-09-29T02:29:48.579Z,99630.00
2022-09-29T02:32:15.019Z,99627.00
2022-09-29T02:34:46.028Z,99630.00
2022-09-29T02:37:32.528Z,99634.00
2022-09-29T02:40:18.425Z,99640.00
2022-09-29T02:43:19.573Z,99639.00
2022-09-29T02:46:06.891Z,99643.00
2022-09-29T02:48:56.162Z,99645.00
2022-09-29T02:51:26.861Z,99642.00
2022-09-29T02:54:14.975Z,99635.00
2022-09-29T02:57:18.914Z,99642.00
2022-09-29T02:59:55.132Z,99642.00
2022-09-29T03:02:26.752Z,99632.00
2022-09-29T03:04:53.966Z,99644.00
2022-09-29T03:07:21.390Z,99633.00
2022-09-29T03:09:47.836Z,99643.00
2022-09-29T03:12:14.420Z,99641.00
2022-09-29T03:14:40.822Z,99638.00
2022-09-29T03:17:07.315Z,99639.00
2022-09-29T03:19:33.904Z,99638.00
2022-09-29T03:22:00.302Z,99647.00
2022-09-29T03:24:27.040Z,99645.00
2022-09-29T03:26:53.468Z,99641.00
2022-09-29T03:29:20.115Z,99642.00
2022-09-29T03:31:46.639Z,99645.00
2022-09-29T03:34:13.128Z,99642.00
2022-09-29T03:36:41.413Z,99645.00
2022-09-29T03:39:08.364Z,99643.00
2022-09-29T03:41:34.927Z,99641.00
2022-09-29T03:44:01.467Z,99642.00
2022-09-29T03:46:27.870Z,99654.00
2022-09-29T03:48:54.803Z,99658.00
2022-09-29T03:51:21.219Z,99665.00
2022-09-29T03:53:47.650Z,99662.00
2022-09-29T03:56:14.115Z,99663.00
2022-09-29T03:58:40.518Z,99665.00
2022-09-29T04:01:07.465Z,99664.00
2022-09-29T04:03:34.607Z,99672.00
2022-09-29T04:06:01.016Z,99662.00
2022-09-29T04:08:27.640Z,99679.00
2022-09-29T04:10:54.065Z,99672.00
2022-09-29T04:13:21.724Z,99667.00
2022-09-29T04:15:51.214Z,99673.00
2022-09-29T04:18:17.639Z,99670.00
2022-09-29T04:20:44.084Z,99675.00
2022-09-29T04:23:10.591Z,99677.00
2022-09-29T04:25:37.021Z,99686.00
2022-09-29T04:28:03.478Z,99683.00
2022-09-29T04:30:30.088Z,99686.00
2022-09-29T04:32:56.505Z,99693.00
2022-09-29T04:35:23.333Z,99683.00
2022-09-29T04:37:49.748Z,99682.00
2022-09-29T04:40:17.201Z,99686.00
2022-09-29T04:42:43.700Z,99690.00
2022-09-29T04:45:10.460Z,99688.00
2022-09-29T04:47:36.935Z,99689.00
2022-09-29T04:50:03.546Z,99694.00
2022-09-29T04:52:31.156Z,99699.00
2022-09-29T04:54:57.570Z,99705.00
2022-09-29T04:57:24.033Z,99705.00
2022-09-29T04:59:51.869Z,99703.00
2022-09-29T05:02:19.423Z,99708.00
2022-09-29T05:04:47.536Z,99698.00
2022-09-29T05:07:14.925Z,99709.00
2022-09-29T05:09:41.410Z,99714.00
2022-09-29T05:12:07.973Z,99704.00
2022-09-29T05:14:35.043Z,99710.00
2022-09-29T05:17:01.846Z,99715.00
2022-09-29T05:19:28.440Z,99714.00
2022-09-29T05:21:54.979Z,99721.00
2022-09-29T05:24:21.409Z,99725.00
2022-09-29T05:26:48.080Z,99710.00
2022-09-29T05:29:14.551Z,99725.00
2022-09-29T05:31:41.305Z,99725.00
2022-09-29T05:34:08.376Z,99720.00
2022-09-29T05:36:35.452Z,99725.00
2022-09-29T05:39:02.020Z,99722.00
2022-09-29T05:41:28.490Z,99723.00
2022-09-29T05:43:55.790Z,99721.00
2022-09-29T05:46:23.388Z,99723.00
2022-09-29T05:48:53.357Z,99722.00
2022-09-29T05:51:23.490Z,99714.00
2022-09-29T05:53:52.690Z,99719.00
2022-09-29T05:56:21.887Z,99717.00
2022-09-29T05:58:48.643Z,99728.00
2022-09-29T06:01:17.866Z,99724.00
2022-09-29T06:03:44.750Z,99728.00
2022-09-29T06:06:20.368Z,99731.00
2022-09-29T06:08:47.874Z,99733.00
2022-09-29T06:11:19.898Z,99726.00
2022-09-29T06:13:48.174Z,99726.00
2022-09-29T06:16:16.650Z,99733.00
2022-09-29T06:18:43.354Z,99730.00
2022-09-29T06:21:12.309Z,99726.00
2022-09-29T06:23:39.402Z,99734.00
2022-09-29T06:26:12.223Z,99739.00
2022-09-29T06:28:39.190Z,99732.00
2022-09-29T06:31:09.100Z,99734.00
2022-09-29T06:33:36.761Z,99748.00
2022-09-29T06:36:26.848Z,99740.00
2022-09-29T06:38:55.914Z,99735.00
2022-09-29T06:41:22.381Z,99734.00
2022-09-29T06:43:48.785Z,99733.00
2022-09-29T06:46:15.259Z,99733.00
2022-09-29T06:48:41.689Z,99736.00
2022-09-29T06:51:10.407Z,99726.00
2022-09-29T06:53:38.906Z,99736.00
2022-09-29T06:56:06.436Z,99734.00
2022-09-29T06:58:33.063Z,99738.00
2022-09-29T07:01:03.263Z,99740.00
2022-09-29T07:03:30.985Z,99743.00
2022-09-29T07:06:15.580Z,99736.00
2022-09-29T07:08:44.099Z,99747.00
2022-09-29T07:11:10.854Z,99740.00
2022-09-29T07:13:37.679Z,99749.00
2022-09-29T07:16:08.498Z,99752.00
2022-09-29T07:18:35.521Z,99751.00
2022-09-29T07:21:01.924Z,99749.00
2022-09-29T07:23:28.775Z,99751.00
2022-09-29T07:25:55.325Z,99754.00
2022-09-29T07:28:22.203Z,99758.00
2022-09-29T07:31:09.023Z,99765.00
2022-09-29T07:33:39.558Z,99770.00
2022-09-29T07:36:06.265Z,99770.00
2022-09-29T07:38:33.187Z,99773.00
2022-09-29T07:41:06.408Z,99780.00
2022-09-29T07:43:34.529Z,99787.00
2022-09-29T07:46:01.984Z,99780.00
2022-09-29T07:48:32.917Z,99783.00
2022-09-29T07:51:05.387Z,99788.00
2022-09-29T07:53:33.152Z,99792.00
2022-09-29T07:56:05.276Z,99792.00
2022-09-29T07:58:32.576Z,99795.00
2022-09-29T08:01:00.292Z,99794.00
2022-09-29T08:03:27.398Z,99797.00
2022-09-29T08:05:53.944Z,99802.00
2022-09-29T08:08:20.466Z,99803.00
2022-09-29T08:10:52.789Z,99806.00
2022-09-29T08:13:20.286Z,99809.00
2022-09-29T08:15:46.744Z,99799.00
2022-09-29T08:18:13.181Z,99818.00
2022-09-29T08:20:39.874Z,99809.00
2022-09-29T08:23:06.969Z,99817.00
2022-09-29T08:25:35.221Z,99811.00
2022-09-29T08:28:02.002Z,99821.00
2022-09-29T08:30:28.716Z,99812.00
2022-09-29T08:32:55.493Z,99812.00
2022-09-29T08:35:22.133Z,99818.00
2022-09-29T08:37:48.946Z,99821.00
2022-09-29T08:40:17.767Z,99820.00
2022-09-29T08:42:56.677Z,99826.00
2022-09-29T08:45:29.962Z,99829.00
2022-09-29T08:48:14.905Z,99823.00
2022-09-29T08:51:03.771Z,99834.00
2022-09-29T08:53:34.046Z,99832.00
2022-09-29T08:56:04.290Z,99840.00
2022-09-29T08:58:32.432Z,99835.00
2022-09-29T09:01:30.042Z,99841.00
2022-09-29T09:04:23.738Z,99835.00
2022-09-29T09:07:02.476Z,99842.00
2022-09-29T09:09:45.675Z,99840.00
2022-09-29T09:12:44.633Z,99834.00
2022-09-29T09:15:49.296Z,99841.00
2022-09-29T09:18:31.772Z,99840.00
2022-09-29T09:21:10.903Z,99834.00
2022-09-29T09:24:00.505Z,99839.00
2022-09-29T09:26:49.018Z,99817.00
2022-09-29T09:29:37.872Z,99818.00
2022-09-29T09:32:09.244Z,99836.00
2022-09-29T09:34:56.645Z,99826.00
2022-09-29T09:37:32.272Z,99844.00
2022-09-29T09:40:05.769Z,99821.00
2022-09-29T09:42:37.538Z,99856.00
2022-09-29T09:45:14.589Z,99863.00
2022-09-29T09:47:47.857Z,99865.00
2022-09-29T09:50:19.809Z,99839.00
2022-09-29T09:52:53.359Z,99857.00
2022-09-29T09:55:26.142Z,99836.00
2022-09-29T09:57:58.604Z,99856.00
2022-09-29T10:00:45.126Z,99852.00
2022-09-29T10:03:12.331Z,99867.00
2022-09-29T10:05:47.753Z,99867.00
2022-09-29T10:08:25.832Z,99880.00
2022-09-29T10:10:58.488Z,99861.00
2022-09-29T10:13:28.508Z,99890.00
2022-09-29T10:16:00.916Z,99871.00
2022-09-29T10:18:52.832Z,99866.00
2022-09-29T10:21:27.183Z,99901.00
2022-09-29T10:23:55.424Z,99894.00
2022-09-29T10:26:26.115Z,99875.00
2022-09-29T10:28:58.557Z,99896.00
2022-09-29T10:31:34.128Z,99899.00
2022-09-29T10:34:16.062Z,99893.00
2022-09-29T10:37:01.217Z,99879.00
2022-09-29T10:39:44.026Z,99879.00
2022-09-29T10:42:32.273Z,99877.00
2022-09-29T10:45:12.263Z,99875.00
2022-09-29T10:47:38.680Z,99877.00
2022-09-29T10:50:15.041Z,99875.00
2022-09-29T10:52:50.674Z,99889.00
2022-09-29T10:55:24.249Z,99901.00
2022-09-29T10:57:52.743Z,99881.00
2022-09-29T11:00:34.429Z,99912.00
2022-09-29T11:03:23.430Z,99916.00
2022-09-29T11:05:58.698Z,99914.00
2022-09-29T11:08:28.294Z,99920.00
2022-09-29T11:11:06.918Z,99925.00
2022-09-29T11:13:40.417Z,99930.00
2022-09-29T11:16:15.340Z,99928.00
2022-09-29T11:18:44.917Z,99932.00
2022-09-29T11:21:40.575Z,99924.00
2022-09-29T11:24:21.258Z,99926.00
2022-09-29T11:26:57.377Z,99925.00
2022-09-29T11:29:40.869Z,99935.00
2022-09-29T11:32:27.415Z,99923.00
2022-09-29T11:35:18.630Z,99917.00
2022-09-29T11:38:09.371Z,99912.00
2022-09-29T11:41:04.966Z,99901.00
2022-09-29T11:43:53.206Z,99927.00
2022-09-29T11:46:32.984Z,99905.00
2022-09-29T11:49:00.898Z,99902.00
2022-09-29T11:51:51.220Z,99886.00
2022-09-29T11:54:40.787Z,99890.00
2022-09-29T11:57:30.075Z,99930.00
2022-09-29T12:00:04.730Z,99931.00
2022-09-29T12:02:54.218Z,99936.00
2022-09-29T12:06:06.738Z,99940.00
2022-09-29T12:09:01.129Z,99941.00
2022-09-29T12:12:23.077Z,99940.00
2022-09-29T12:15:14.597Z,99940.00
2022-09-29T12:17:46.378Z,99945.00
2022-09-29T12:20:35.166Z,99945.00
2022-09-29T12:23:05.679Z,99944.00
2022-09-29T12:25:36.881Z,99945.00
2022-09-29T12:28:12.815Z,99942.00
2022-09-29T12:30:49.393Z,99951.00
2022-09-29T12:33:25.680Z,99948.00
2022-09-29T12:36:39.030Z,99947.00
2022-09-29T12:39:29.321Z,99953.00
2022-09-29T12:42:24.157Z,99945.00
2022-09-29T12:45:08.035Z,99953.00
2022-09-29T12:47:49.733Z,99948.00
2022-09-29T12:50:38.782Z,99945.00
2022-09-29T12:53:16.124Z,99945.00
2022-09-29T12:55:53.581Z,99945.00
2022-09-29T12:58:31.366Z,99948.00
2022-09-29T13:01:04.602Z,99947.00
2022-09-29T13:03:57.879Z,99953.00
2022-09-29T13:06:44.487Z,99949.00
2022-09-29T13:09:38.321Z,99962.00
2022-09-29T13:12:52.704Z,99958.00
2022-09-29T13:15:30.984Z,99952.00
2022-09-29T13:18:35.430Z,99957.00
2022-09-29T13:21:27.580Z,99968.00
2022-09-29T13:24:05.503Z,99964.00
2022-09-29T13:26:51.408Z,99971.00
2022-09-29T13:29:21.698Z,99962.00
2022-09-29T13:31:50.926Z,99965.00
2022-09-29T13:34:33.541Z,99967.00
2022-09-29T13:37:21.274Z,99968.00
2022-09-29T13:40:09.137Z,99953.00
2022-09-29T13:42:43.583Z,99958.00
2022-09-29T13:45:36.622Z,99964.00
2022-09-29T13:48:15.388Z,99950.00
2022-09-29T13:50:45.758Z,99958.00
2022-09-29T13:53:28.263Z,99964.00
2022-09-29T13:56:08.674Z,99967.00
2022-09-29T13:58:44.366Z,99968.00
2022-09-29T14:01:15.197Z,99977.00
2022-09-29T14:03:45.207Z,99974.00
2022-09-29T14:09:13.601Z,99974.00
2022-09-29T14:11:44.694Z,99986.00
2022-09-29T14:14:29.126Z,99982.00
2022-09-29T14:17:19.594Z,99995.00
2022-09-29T14:20:04.797Z,99991.00
2022-09-29T14:22:31.268Z,99995.00
2022-09-29T14:25:13.661Z,99996.00
2022-09-29T14:27:59.094Z,100005.00
2022-09-29T14:30:32.423Z,100000.00
2022-09-29T14:33:23.906Z,100009.00
2022-09-29T14:35:59.302Z,100015.00
2022-09-29T14:38:30.181Z,100010.00
2022-09-29T14:40:57.619Z,100003.00
2022-09-29T14:43:35.220Z,99985.00
2022-09-29T14:46:42.858Z,99997.00
2022-09-29T14:49:56.689Z,99995.00
2022-09-29T14:52:46.488Z,100001.00
2022-09-29T14:55:27.899Z,99994.00
2022-09-29T14:58:14.203Z,100003.00
2022-09-29T15:00:54.154Z,100008.00
2022-09-29T15:03:29.548Z,99997.00
2022-09-29T15:06:18.722Z,100010.00
2022-09-29T15:08:56.008Z,100022.00
2022-09-29T15:11:28.740Z,100014.00
2022-09-29T15:13:56.616Z,100015.00
2022-09-29T15:16:30.536Z,100021.00
2022-09-29T15:19:17.188Z,100025.00
2022-09-29T15:21:55.528Z,100034.00
2022-09-29T15:24:32.677Z,100018.00
2022-09-29T15:27:04.666Z,100019.00
2022-09-29T15:29:31.321Z,100016.00
2022-09-29T15:31:57.854Z,100022.00
2022-09-29T15:34:25.560Z,100025.00
2022-09-29T15:36:54.882Z,100026.00
2022-09-29T15:39:33.428Z,100027.00
2022-09-29T15:42:07.741Z,100036.00
2022-09-29T15:44:34.227Z,100031.00
2022-09-29T15:47:01.043Z,100038.00
2022-09-29T15:49:28.686Z,100033.00
2022-09-29T15:52:00.432Z,100036.00
2022-09-29T15:57:43.389Z,100045.00
2022-09-29T16:00:21.978Z,100044.00
2022-09-29T16:03:06.830Z,100050.00
2022-09-29T16:05:40.008Z,100053.00
2022-09-29T16:08:22.124Z,100059.00
2022-09-29T16:10:50.286Z,100061.00
2022-09-29T16:13:21.398Z,100062.00
2022-09-29T16:15:49.155Z,100064.00
2022-09-29T16:18:25.960Z,100062.00
2022-09-29T16:20:59.113Z,100067.00
2022-09-29T16:23:29.259Z,100069.00
2022-09-29T16:26:07.936Z,100079.00
2022-09-29T16:28:36.675Z,100083.00
2022-09-29T16:31:17.875Z,100077.00
2022-09-29T16:33:46.455Z,100089.00
2022-09-29T16:36:36.819Z,100095.00
2022-09-29T16:39:05.011Z,100094.00
2022-09-29T16:41:38.125Z,100098.00
2022-09-29T16:44:24.814Z,100094.00
2022-09-29T16:46:54.927Z,100093.00
2022-09-29T16:49:25.980Z,100105.00
2022-09-29T16:51:54.448Z,100104.00
2022-09-29T16:54:24.364Z,100108.00
2022-09-29T16:57:17.031Z,100115.00
2022-09-29T16:59:45.166Z,100114.00
2022-09-29T17:02:12.810Z,100133.00
2022-09-29T17:04:39.418Z,100128.00
2022-09-29T17:07:06.008Z,100138.00
2022-09-29T17:09:32.505Z,100150.00
2022-09-29T17:12:00.204Z,100147.00
2022-09-29T17:14:27.033Z,100148.00
2022-09-29T17:16:53.441Z,100157.00
2022-09-29T17:19:20.501Z,100162.00
2022-09-29T17:21:46.988Z,100160.00
2022-09-29T17:24:13.438Z,100162.00
2022-09-29T17:27:01.742Z,100168.00
2022-09-29T17:29:28.767Z,100172.00
2022-09-29T17:31:55.283Z,100169.00
2022-09-29T17:34:28.777Z,100171.00
2022-09-29T17:37:01.742Z,100176.00
2022-09-29T17:39:29.302Z,100182.00
2022-09-29T17:41:55.875Z,100183.00
2022-09-29T17:44:22.305Z,100191.00
2022-09-29T17:46:48.779Z,100185.00
2022-09-29T17:49:18.689Z,100191.00
2022-09-29T17:51:45.128Z,100189.00
2022-09-29T17:54:11.645Z,100187.00
2022-09-29T17:56:42.690Z,100188.00
2022-09-29T17:59:10.267Z,100189.00
2022-09-29T18:01:37.975Z,100195.00
2022-09-29T18:04:05.382Z,100197.00
2022-09-29T18:06:35.180Z,100203.00
2022-09-29T18:09:01.628Z,100208.00
2022-09-29T18:11:28.096Z,100207.00
2022-09-29T18:13:58.267Z,100212.00
2022-09-29T18:16:26.396Z,100207.00
2022-09-29T18:18:58.032Z,100213.00
2022-09-29T18:21:25.384Z,100206.00
2022-09-29T18:23:52.062Z,100212.00
2022-09-29T18:26:18.720Z,100211.00
2022-09-29T18:28:49.647Z,100205.00
2022-09-29T18:31:25.453Z,100210.00
2022-09-29T18:33:52.362Z,100209.00
2022-09-29T18:36:18.774Z,100208.00
2022-09-29T18:38:45.649Z,100210.00
2022-09-29T18:41:20.174Z,100213.00
2022-09-29T18:43:47.787Z,100208.00
2022-09-29T18:46:15.123Z,100207.00
2022-09-29T18:48:44.058Z,100215.00
2022-09-29T18:51:13.720Z,100219.00
2022-09-29T18:53:41.609Z,100212.00
2022-09-29T18:56:14.288Z,100213.00
2022-09-29T18:58:40.710Z,100212.00
2022-09-29T19:01:12.188Z,100223.00
2022-09-29T19:03:40.504Z,100220.00
2022-09-29T19:06:08.808Z,100225.00
2022-09-29T19:08:36.219Z,100224.00
2022-09-29T19:11:04.646Z,100232.00
2022-09-29T19:13:33.252Z,100224.00
2022-09-29T19:15:59.849Z,100225.00
2022-09-29T19:18:28.402Z,100228.00
2022-09-29T19:20:57.010Z,100229.00
2022-09-29T19:23:25.458Z,100239.00
2022-09-29T19:25:53.931Z,100238.00
2022-09-29T19:28:22.265Z,100241.00
2022-09-29T19:30:48.944Z,100245.00
2022-09-29T19:33:20.290Z,100253.00
2022-09-29T19:35:51.885Z,100252.00
2022-09-29T19:38:19.829Z,100241.00
2022-09-29T19:40:50.063Z,100247.00
2022-09-29T19:43:16.607Z,100242.00
2022-09-29T19:45:44.723Z,100243.00
2022-09-29T19:48:16.277Z,100248.00
2022-09-29T19:51:01.424Z,100250.00
2022-09-29T19:53:28.222Z,100254.00
2022-09-29T19:55:54.765Z,100251.00
2022-09-29T19:58:21.415Z,100242.00
2022-09-29T20:00:47.961Z,100243.00
2022-09-29T20:03:14.730Z,100255.00
2022-09-29T20:05:41.231Z,100262.00
2022-09-29T20:08:07.637Z,100252.00
2022-09-29T20:10:34.297Z,100260.00
2022-09-29T20:13:00.887Z,100260.00
2022-09-29T20:15:27.360Z,100264.00
2022-09-29T20:17:53.781Z,100262.00
2022-09-29T20:20:22.762Z,100269.00
2022-09-29T20:22:49.813Z,100264.00
2022-09-29T20:25:16.517Z,100267.00
2022-09-29T20:27:42.925Z,100264.00
2022-09-29T20:30:09.847Z,100269.00
2022-09-29T20:32:36.500Z,100273.00
2022-09-29T20:35:03.005Z,100282.00
2022-09-29T20:37:29.428Z,100274.00
2022-09-29T20:39:56.008Z,100284.00
2022-09-29T20:42:25.402Z,100294.00
2022-09-29T20:44:56.419Z,100292.00
2022-09-29T20:47:27.481Z,100304.00
2022-09-29T20:49:55.000Z,100296.00
2022-09-29T20:52:22.582Z,100295.00
2022-09-29T20:54:49.156Z,100302.00
2022-09-29T20:57:18.715Z,100304.00
2022-09-29T20:59:45.218Z,100302.00
2022-09-29T21:02:13.002Z,100306.00
2022-09-29T21:04:39.799Z,100313.00
2022-09-29T21:07:26.216Z,100317.00
2022-09-29T21:09:52.852Z,100316.00
2022-09-29T21:12:19.426Z,100313.00
2022-09-29T21:14:45.848Z,100323.00
2022-09-29T21:17:12.628Z,100320.00
2022-09-29T21:19:39.518Z,100330.00
2022-09-29T21:22:06.000Z,100333.00
2022-09-29T21:24:33.722Z,100326.00
2022-09-29T21:27:00.484Z,100335.00
2022-09-29T21:29:26.912Z,100335.00
2022-09-29T21:31:53.372Z,100336.00
2022-09-29T21:34:21.091Z,100337.00
2022-09-29T21:36:47.891Z,100340.00
2022-09-29T21:39:14.638Z,100353.00
2022-09-29T21:41:42.993Z,100351.00
2022-09-29T21:44:21.433Z,100354.00
2022-09-29T21:46:48.246Z,100350.00
2022-09-29T21:49:16.499Z,100354.00
2022-09-29T21:51:46.397Z,100344.00
2022-09-29T21:54:15.465Z,100353.00
2022-09-29T21:56:43.436Z,100348.00
2022-09-29T21:59:11.539Z,100346.00
2022-09-29T22:01:39.471Z,100348.00
2022-09-29T22:04:07.131Z,100355.00
2022-09-29T22:06:35.308Z,100355.00
2022-09-29T22:09:02.454Z,100356.00
2022-09-29T22:11:31.513Z,100356.00
2022-09-29T22:14:00.146Z,100362.00
2022-09-29T22:16:29.435Z,100363.00
2022-09-29T22:19:21.525Z,100364.00
2022-09-29T22:21:44.367Z,100362.00
2022-09-29T22:24:11.789Z,100366.00
2022-09-29T22:26:39.296Z,100377.00
2022-09-29T22:29:05.791Z,100367.00
2022-09-29T22:31:32.343Z,100383.00
2022-09-29T22:34:01.443Z,100379.00
2022-09-29T22:36:30.402Z,100372.00
2022-09-29T22:38:56.881Z,100376.00
2022-09-29T22:41:24.062Z,100379.00
2022-09-29T22:43:52.280Z,100377.00
2022-09-29T22:46:19.134Z,100379.00
2022-09-29T22:48:45.591Z,100380.00
2022-09-29T22:51:12.126Z,100377.00
2022-09-29T22:53:38.699Z,100390.00
2022-09-29T22:56:14.389Z,100390.00
2022-09-29T22:58:41.849Z,100393.00
2022-09-29T23:01:14.101Z,100396.00
2022-09-29T23:03:42.266Z,100403.00
2022-09-29T23:06:09.434Z,100400.00
2022-09-29T23:08:36.779Z,100406.00
2022-09-29T23:11:07.910Z,100402.00
2022-09-29T23:13:37.150Z,100411.00
2022-09-29T23:16:12.025Z,100408.00
2022-09-29T23:18:44.935Z,100404.00
2022-09-29T23:21:20.253Z,100409.00
2022-09-29T23:23:51.408Z,100413.00
2022-09-29T23:26:18.098Z,100407.00
2022-09-29T23:28:44.587Z,100407.00
2022-09-29T23:31:11.436Z,100413.00
2022-09-29T23:33:38.077Z,100411.00
2022-09-29T23:36:13.295Z,100409.00
2022-09-29T23:39:00.037Z,100408.00
2022-09-29T23:41:27.905Z,100413.00
2022-09-29T23:43:55.612Z,100415.00
2022-09-29T23:46:32.082Z,100416.00
2022-09-29T23:48:59.918Z,100412.00
2022-09-29T23:51:27.558Z,100417.00
2022-09-29T23:53:54.015Z,100420.00
2022-09-29T23:56:21.731Z,100419.00
2022-09-29T23:58:48.524Z,100415.00
